Time;durP1;ratioP1;P1;durP2;ratioP2;P2;SDS_P1;SDS_P2;PMS_P1;PMS_P2;Temp;Humidity;BMP_temperature;BMP_pressure;BME280_temperature;BME280_humidity;BME280_pressure;Samples;Min_cycle;Max_cycle;Signal;HPM_P1;HPM_P2
2021/05/19 00:00:13;;;;;;;3.60;3.22;;;15.00;58.60;;;;;;1496329;39;20321;-57
2021/05/19 00:01:42;;;;;;;3.70;3.40;;;15.00;58.60;;;;;;1495003;39;20124;-57
2021/05/19 00:03:03;;;;;;;4.15;3.08;;;15.00;58.40;;;;;;1494572;39;20031;-57
2021/05/19 00:04:24;;;;;;;4.30;4.00;;;15.00;58.30;;;;;;1495325;39;20454;-57
2021/05/19 00:05:45;;;;;;;3.47;3.25;;;15.00;58.40;;;;;;1495659;39;20279;-57
2021/05/19 00:07:06;;;;;;;4.00;3.70;;;15.00;58.40;;;;;;1496874;39;20377;-57
2021/05/19 00:08:27;;;;;;;3.97;3.58;;;15.00;58.40;;;;;;1495623;39;20035;-57
2021/05/19 00:09:48;;;;;;;3.80;3.50;;;15.00;58.40;;;;;;1497172;39;20038;-57
2021/05/19 00:11:09;;;;;;;3.97;3.58;;;15.00;58.40;;;;;;1496209;39;20035;-58
2021/05/19 00:12:30;;;;;;;3.78;3.47;;;15.00;58.60;;;;;;1495471;39;20047;-56
2021/05/19 00:13:51;;;;;;;6.05;3.55;;;15.00;58.50;;;;;;1494572;39;20038;-58
2021/05/19 00:15:12;;;;;;;5.88;3.90;;;15.00;58.50;;;;;;1496487;39;20418;-58
2021/05/19 00:16:34;;;;;;;4.32;3.75;;;15.00;58.70;;;;;;1497616;39;20057;-58
2021/05/19 00:17:54;;;;;;;4.50;3.65;;;15.00;58.70;;;;;;1493411;39;20042;-58
2021/05/19 00:19:17;;;;;;;3.95;3.65;;;15.00;58.60;;;;;;1495920;39;20054;-58
2021/05/19 00:20:38;;;;;;;4.32;3.70;;;15.00;58.60;;;;;;1496732;39;20150;-57
2021/05/19 00:21:59;;;;;;;3.75;3.45;;;15.00;58.70;;;;;;1496264;39;20030;-57
2021/05/19 00:23:20;;;;;;;5.40;3.63;;;15.00;58.70;;;;;;1496296;39;20035;-56
2021/05/19 00:24:41;;;;;;;5.68;4.00;;;15.00;58.70;;;;;;1495987;39;20343;-57
2021/05/19 00:26:03;;;;;;;3.95;3.35;;;15.00;58.60;;;;;;1496371;39;20031;-58
2021/05/19 00:27:24;;;;;;;4.53;3.70;;;15.00;58.70;;;;;;1496028;39;20126;-57
2021/05/19 00:28:49;;;;;;;4.22;3.83;;;15.00;58.80;;;;;;1496207;39;20042;-56
2021/05/19 00:30:15;;;;;;;5.18;4.03;;;15.00;59.00;;;;;;1497701;39;20369;-57
2021/05/19 00:31:36;;;;;;;3.95;3.60;;;15.00;58.90;;;;;;1494551;39;20380;-57
2021/05/19 00:32:57;;;;;;;4.00;3.70;;;15.00;58.80;;;;;;1496443;39;20039;-56
2021/05/19 00:34:18;;;;;;;4.15;3.75;;;15.00;58.90;;;;;;1497272;39;20039;-58
2021/05/19 00:35:39;;;;;;;4.75;3.88;;;15.00;58.80;;;;;;1495397;39;20019;-58
2021/05/19 00:37:00;;;;;;;3.47;3.25;;;15.00;58.70;;;;;;1496593;39;20035;-58
2021/05/19 00:38:21;;;;;;;4.90;4.15;;;15.00;59.20;;;;;;1495431;39;20059;-56
2021/05/19 00:39:46;;;;;;;4.68;3.85;;;15.00;58.70;;;;;;1496613;39;20028;-56
2021/05/19 00:41:08;;;;;;;3.90;3.50;;;15.00;58.80;;;;;;1496825;39;20122;-58
2021/05/19 00:42:29;;;;;;;4.63;4.22;;;15.00;58.70;;;;;;1494467;39;20051;-57
2021/05/19 00:43:50;;;;;;;5.07;3.90;;;15.00;58.70;;;;;;1495225;39;20035;-56
2021/05/19 00:45:12;;;;;;;4.88;3.63;;;15.00;58.80;;;;;;1496921;39;20215;-56
2021/05/19 00:46:34;;;;;;;3.88;3.58;;;15.00;58.90;;;;;;1495554;39;20047;-58
2021/05/19 00:47:55;;;;;;;3.92;3.63;;;14.90;58.80;;;;;;1497747;39;20123;-58
2021/05/19 00:49:16;;;;;;;4.55;4.05;;;15.00;58.90;;;;;;1497319;39;20034;-57
2021/05/19 00:50:39;;;;;;;4.68;3.58;;;14.90;58.90;;;;;;1495089;39;20047;-57
2021/05/19 00:52:00;;;;;;;4.45;3.72;;;15.00;59.10;;;;;;1495953;39;20385;-56
2021/05/19 00:53:20;;;;;;;4.05;3.72;;;14.90;59.10;;;;;;1496708;39;20095;-58
2021/05/19 00:54:41;;;;;;;5.85;3.97;;;15.00;59.30;;;;;;1495844;39;20301;-57
2021/05/19 00:56:02;;;;;;;4.18;3.60;;;14.90;59.20;;;;;;1497112;39;20031;-56
2021/05/19 00:57:24;;;;;;;4.07;3.67;;;14.90;59.20;;;;;;1496095;39;20279;-58
2021/05/19 00:58:46;;;;;;;4.22;3.80;;;14.90;59.20;;;;;;1496969;39;20102;-56
2021/05/19 01:00:10;;;;;;;4.10;3.80;;;14.90;59.30;;;;;;1498265;39;20052;-56
2021/05/19 01:01:37;;;;;;;4.40;4.00;;;14.90;59.30;;;;;;1496048;39;20067;-57
2021/05/19 01:02:58;;;;;;;5.82;4.30;;;14.90;59.20;;;;;;1496209;39;20051;-58
2021/05/19 01:04:19;;;;;;;4.07;3.67;;;14.90;59.20;;;;;;1496307;39;20029;-55
2021/05/19 01:05:58;;;;;;;3.88;3.58;;;14.90;59.20;;;;;;1495688;39;20047;-58
2021/05/19 01:07:25;;;;;;;4.43;3.95;;;14.90;59.20;;;;;;1495403;39;20028;-58
2021/05/19 01:10:25;;;;;;;3.95;3.50;;;14.90;59.30;;;;;;1496960;39;20107;-58
2021/05/19 01:11:47;;;;;;;4.47;4.07;;;14.90;59.20;;;;;;1497837;39;20048;-56
2021/05/19 01:13:08;;;;;;;4.15;3.85;;;14.90;59.30;;;;;;1496822;39;20352;-57
2021/05/19 01:14:30;;;;;;;4.50;4.15;;;14.90;59.40;;;;;;1496332;39;20364;-58
2021/05/19 01:15:51;;;;;;;4.43;4.03;;;14.90;59.30;;;;;;1491173;39;20290;-58
2021/05/19 01:17:13;;;;;;;4.85;3.97;;;14.90;59.30;;;;;;1490459;39;20051;-57
2021/05/19 01:18:35;;;;;;;4.82;4.05;;;14.90;59.30;;;;;;1490154;39;20365;-58
2021/05/19 01:19:56;;;;;;;4.22;3.83;;;14.90;59.40;;;;;;1491238;39;20132;-57
2021/05/19 01:21:18;;;;;;;4.00;3.70;;;14.90;59.40;;;;;;1486349;39;20032;-58
2021/05/19 01:22:39;;;;;;;4.93;4.15;;;14.90;59.40;;;;;;1487394;39;20043;-57
2021/05/19 01:24:05;;;;;;;3.97;3.65;;;14.90;59.40;;;;;;1490471;39;20035;-58
2021/05/19 01:25:26;;;;;;;4.40;4.00;;;14.90;59.40;;;;;;1490568;39;20038;-57
2021/05/19 01:26:48;;;;;;;4.18;3.80;;;14.90;59.30;;;;;;1489764;39;20102;-57
2021/05/19 01:28:08;;;;;;;4.10;3.70;;;14.90;59.40;;;;;;1485295;40;20020;-58
2021/05/19 01:29:29;;;;;;;3.80;3.40;;;14.90;59.40;;;;;;1488866;39;20048;-56
2021/05/19 01:30:50;;;;;;;3.85;3.55;;;14.90;59.40;;;;;;1490104;39;20066;-57
2021/05/19 01:32:11;;;;;;;4.07;3.70;;;14.90;59.30;;;;;;1489671;39;20034;-57
2021/05/19 01:33:32;;;;;;;3.78;3.53;;;14.90;59.30;;;;;;1489523;39;20075;-58
2021/05/19 01:34:53;;;;;;;4.20;3.60;;;14.90;59.30;;;;;;1489193;39;20036;-58
2021/05/19 01:36:15;;;;;;;3.53;3.33;;;14.80;59.30;;;;;;1491496;39;20026;-56
2021/05/19 01:37:37;;;;;;;3.80;3.47;;;14.80;59.30;;;;;;1488675;39;20028;-58
2021/05/19 01:38:58;;;;;;;3.78;3.47;;;14.80;59.30;;;;;;1491772;39;20030;-57
2021/05/19 01:40:22;;;;;;;4.05;3.75;;;14.80;59.20;;;;;;1489844;39;20020;-57
2021/05/19 01:41:45;;;;;;;5.18;3.65;;;14.80;59.30;;;;;;1490242;39;20063;-57
2021/05/19 01:43:06;;;;;;;3.42;3.13;;;14.70;59.30;;;;;;1491328;39;20044;-57
2021/05/19 01:44:28;;;;;;;3.85;3.55;;;14.70;59.20;;;;;;1488844;39;20040;-58
2021/05/19 01:45:50;;;;;;;3.70;3.45;;;14.70;59.30;;;;;;1490534;39;20035;-58
2021/05/19 01:47:11;;;;;;;3.22;3.03;;;14.70;59.30;;;;;;1491494;39;20108;-58
2021/05/19 01:48:34;;;;;;;3.50;3.20;;;14.70;59.30;;;;;;1489602;39;20048;-57
2021/05/19 01:49:56;;;;;;;3.38;3.10;;;14.60;59.20;;;;;;1491817;39;20265;-57
2021/05/19 01:51:19;;;;;;;3.50;3.20;;;14.70;59.40;;;;;;1491673;39;20028;-58
2021/05/19 01:52:42;;;;;;;3.63;3.28;;;14.60;59.40;;;;;;1490024;39;20117;-58
2021/05/19 01:54:08;;;;;;;4.30;3.42;;;14.70;59.40;;;;;;1488962;39;20020;-57
2021/05/19 01:55:29;;;;;;;4.38;3.13;;;14.60;59.40;;;;;;1490464;39;20035;-58
2021/05/19 01:56:51;;;;;;;4.13;3.65;;;14.60;59.30;;;;;;1491566;39;20027;-57
2021/05/19 01:58:12;;;;;;;4.25;3.85;;;14.60;59.30;;;;;;1491500;39;20047;-57
2021/05/19 01:59:34;;;;;;;4.35;3.80;;;14.60;59.30;;;;;;1489940;39;20095;-57
2021/05/19 02:00:55;;;;;;;4.78;4.28;;;14.60;59.30;;;;;;1491479;39;20043;-58
2021/05/19 02:02:16;;;;;;;4.13;3.83;;;14.60;59.40;;;;;;1491948;39;20043;-58
2021/05/19 02:03:37;;;;;;;4.25;3.88;;;14.60;59.40;;;;;;1490790;39;20054;-58
2021/05/19 02:04:59;;;;;;;4.43;4.13;;;14.60;59.40;;;;;;1491526;39;20383;-57
2021/05/19 02:06:19;;;;;;;4.45;4.05;;;14.60;59.40;;;;;;1490974;39;20036;-57
2021/05/19 02:07:40;;;;;;;4.82;4.43;;;14.60;59.40;;;;;;1490465;39;20043;-58
2021/05/19 02:09:01;;;;;;;4.68;4.28;;;14.60;59.40;;;;;;1490583;39;20052;-57
2021/05/19 02:10:24;;;;;;;4.40;4.00;;;14.50;59.40;;;;;;1489537;39;20028;-58
2021/05/19 02:11:45;;;;;;;5.03;4.65;;;14.50;59.50;;;;;;1489835;39;20039;-58
2021/05/19 02:13:09;;;;;;;5.13;4.72;;;14.50;59.50;;;;;;1491598;39;20035;-58
2021/05/19 02:14:29;;;;;;;5.10;4.60;;;14.50;59.50;;;;;;1492377;39;20412;-57
2021/05/19 02:15:50;;;;;;;5.07;4.68;;;14.50;59.50;;;;;;1491430;39;20059;-56
2021/05/19 02:17:11;;;;;;;5.50;5.03;;;14.50;59.50;;;;;;1491564;39;20190;-57
2021/05/19 02:18:32;;;;;;;5.68;4.85;;;14.50;59.60;;;;;;1490520;39;20035;-56
2021/05/19 02:19:54;;;;;;;5.72;5.13;;;14.50;59.60;;;;;;1490464;39;20368;-58
2021/05/19 02:21:15;;;;;;;5.60;5.05;;;14.50;59.50;;;;;;1491148;39;20039;-58
2021/05/19 02:22:36;;;;;;;6.03;5.53;;;14.40;59.50;;;;;;1490357;39;20036;-58
2021/05/19 02:24:00;;;;;;;5.70;5.20;;;14.40;59.60;;;;;;1491825;39;20043;-58
2021/05/19 02:25:22;;;;;;;5.63;5.22;;;14.40;59.60;;;;;;1490354;39;20034;-57
2021/05/19 02:26:43;;;;;;;6.00;5.50;;;14.40;59.50;;;;;;1490399;39;20032;-57
2021/05/19 02:28:04;;;;;;;6.93;6.20;;;14.40;59.50;;;;;;1491773;39;20047;-58
2021/05/19 02:29:25;;;;;;;6.22;5.72;;;14.40;59.60;;;;;;1490752;39;20305;-59
2021/05/19 02:30:46;;;;;;;6.57;5.97;;;14.40;59.60;;;;;;1490912;39;20310;-58
2021/05/19 02:32:07;;;;;;;8.65;5.40;;;14.40;59.70;;;;;;1491324;39;20030;-58
2021/05/19 02:33:28;;;;;;;6.40;5.90;;;14.40;59.70;;;;;;1490927;39;20177;-57
2021/05/19 02:34:49;;;;;;;6.90;6.30;;;14.40;59.80;;;;;;1490399;39;20035;-58
2021/05/19 02:36:10;;;;;;;6.55;6.00;;;14.30;59.80;;;;;;1490417;39;20036;-58
2021/05/19 02:37:31;;;;;;;6.47;5.85;;;14.30;59.70;;;;;;1490678;39;20376;-58
2021/05/19 02:38:53;;;;;;;8.00;7.20;;;14.30;59.70;;;;;;1490347;39;20031;-58
2021/05/19 02:40:16;;;;;;;6.57;6.05;;;14.30;59.70;;;;;;1491494;39;20028;-56
2021/05/19 02:41:38;;;;;;;7.38;6.78;;;14.30;59.80;;;;;;1491663;39;20032;-56
2021/05/19 02:42:59;;;;;;;7.28;6.57;;;14.30;59.80;;;;;;1491853;39;20152;-58
2021/05/19 02:44:20;;;;;;;7.18;6.57;;;14.30;59.90;;;;;;1490656;39;20075;-58
2021/05/19 02:45:41;;;;;;;7.75;6.93;;;14.20;59.80;;;;;;1490467;39;20054;-56
2021/05/19 02:47:04;;;;;;;7.68;7.03;;;14.20;59.80;;;;;;1489553;39;20352;-57
2021/05/19 02:48:25;;;;;;;7.13;6.53;;;14.20;59.90;;;;;;1490298;39;20043;-56
2021/05/19 02:49:46;;;;;;;8.20;7.50;;;14.20;59.90;;;;;;1490316;39;20047;-59
2021/05/19 02:51:08;;;;;;;7.43;6.82;;;14.20;60.10;;;;;;1490068;39;20040;-57
2021/05/19 02:52:29;;;;;;;7.88;7.07;;;14.20;60.20;;;;;;1488943;39;20255;-57
2021/05/19 02:53:50;;;;;;;8.23;7.43;;;14.20;60.20;;;;;;1491373;39;20039;-58
2021/05/19 02:55:11;;;;;;;8.02;7.32;;;14.10;60.20;;;;;;1491410;39;20047;-58
2021/05/19 02:56:32;;;;;;;7.65;7.05;;;14.10;60.10;;;;;;1489515;39;20113;-57
2021/05/19 02:57:54;;;;;;;7.25;6.70;;;14.20;60.20;;;;;;1490698;39;20272;-56
2021/05/19 02:59:15;;;;;;;8.73;7.90;;;14.10;60.20;;;;;;1490914;39;20339;-58
2021/05/19 03:00:36;;;;;;;8.32;7.53;;;14.10;60.20;;;;;;1488996;39;20063;-58
2021/05/19 03:01:57;;;;;;;8.18;7.47;;;14.10;60.20;;;;;;1490954;39;20038;-57
2021/05/19 03:03:18;;;;;;;8.25;7.43;;;14.10;60.20;;;;;;1490585;39;20024;-58
2021/05/19 03:04:39;;;;;;;9.30;7.65;;;14.10;60.10;;;;;;1489961;39;20039;-57
2021/05/19 03:06:00;;;;;;;8.20;7.45;;;14.10;60.10;;;;;;1490868;39;20032;-58
2021/05/19 03:07:21;;;;;;;9.05;8.23;;;14.10;60.20;;;;;;1492807;39;20046;-56
2021/05/19 03:08:42;;;;;;;8.18;7.45;;;14.10;60.20;;;;;;1491081;39;20224;-57
2021/05/19 03:10:04;;;;;;;8.27;7.57;;;14.10;60.30;;;;;;1490922;39;20391;-56
2021/05/19 03:11:25;;;;;;;8.35;7.55;;;14.00;60.40;;;;;;1488553;39;20039;-58
2021/05/19 03:12:46;;;;;;;8.45;7.65;;;14.00;60.50;;;;;;1485963;40;20064;-57
2021/05/19 03:14:07;;;;;;;8.38;7.68;;;14.00;60.40;;;;;;1489563;39;20022;-57
2021/05/19 03:15:28;;;;;;;8.45;7.75;;;14.00;60.40;;;;;;1492650;39;20036;-58
2021/05/19 03:16:49;;;;;;;9.20;8.40;;;14.00;60.50;;;;;;1491570;39;20031;-57
2021/05/19 03:18:10;;;;;;;8.95;8.15;;;14.00;60.60;;;;;;1489555;39;20036;-58
2021/05/19 03:19:31;;;;;;;9.25;8.32;;;14.00;60.40;;;;;;1489601;39;20040;-58
2021/05/19 03:20:52;;;;;;;8.68;7.78;;;14.00;60.40;;;;;;1490751;39;20047;-58
2021/05/19 03:22:13;;;;;;;8.57;7.65;;;14.00;60.30;;;;;;1490400;39;20126;-57
2021/05/19 03:23:34;;;;;;;9.15;8.27;;;14.00;60.40;;;;;;1488814;39;20047;-57
2021/05/19 03:24:55;;;;;;;8.75;8.05;;;14.00;60.30;;;;;;1488449;39;20392;-57
2021/05/19 03:26:16;;;;;;;8.68;7.80;;;14.00;60.40;;;;;;1491617;39;20357;-58
2021/05/19 03:27:37;;;;;;;9.07;8.18;;;13.90;60.30;;;;;;1489737;39;20076;-57
2021/05/19 03:28:58;;;;;;;8.80;8.00;;;13.90;60.40;;;;;;1489807;39;20032;-57
2021/05/19 03:30:20;;;;;;;8.60;7.80;;;13.90;60.30;;;;;;1490900;39;20028;-57
2021/05/19 03:31:41;;;;;;;8.38;7.60;;;13.90;60.40;;;;;;1489874;39;20039;-58
2021/05/19 03:33:03;;;;;;;8.80;7.85;;;13.90;60.30;;;;;;1491122;39;20048;-58
2021/05/19 03:34:24;;;;;;;9.60;8.70;;;13.90;60.40;;;;;;1488761;39;20036;-57
2021/05/19 03:35:45;;;;;;;8.70;7.93;;;13.90;60.40;;;;;;1489835;39;20031;-57
2021/05/19 03:37:06;;;;;;;9.57;8.68;;;13.90;60.40;;;;;;1491448;39;20031;-57
2021/05/19 03:38:27;;;;;;;9.07;8.27;;;13.90;60.50;;;;;;1490223;39;20036;-58
2021/05/19 03:39:48;;;;;;;8.80;7.90;;;13.90;60.50;;;;;;1490150;39;20116;-57
2021/05/19 03:41:09;;;;;;;10.43;8.55;;;13.80;60.50;;;;;;1491361;39;20112;-58
2021/05/19 03:42:30;;;;;;;9.25;8.35;;;13.80;60.60;;;;;;1490411;39;20292;-58
2021/05/19 03:43:51;;;;;;;9.50;8.60;;;13.80;60.70;;;;;;1490523;39;20043;-56
2021/05/19 03:45:15;;;;;;;10.23;9.02;;;13.80;60.70;;;;;;1488290;39;20026;-58
2021/05/19 03:46:37;;;;;;;9.35;8.48;;;13.80;60.80;;;;;;1490548;39;20276;-58
2021/05/19 03:47:58;;;;;;;9.45;8.55;;;13.80;60.80;;;;;;1490908;39;20430;-58
2021/05/19 03:49:19;;;;;;;8.40;7.65;;;13.80;60.80;;;;;;1491351;39;20024;-57
2021/05/19 03:50:40;;;;;;;9.23;8.43;;;13.80;60.70;;;;;;1491040;39;20445;-56
2021/05/19 03:52:01;;;;;;;9.90;8.98;;;13.80;61.00;;;;;;1491158;39;20032;-57
2021/05/19 03:53:22;;;;;;;9.00;8.10;;;13.80;60.80;;;;;;1489693;39;20251;-58
2021/05/19 03:54:44;;;;;;;9.48;8.57;;;13.80;60.80;;;;;;1491075;39;20028;-58
2021/05/19 03:56:05;;;;;;;9.13;8.32;;;13.80;60.60;;;;;;1491069;39;20373;-58
2021/05/19 03:57:26;;;;;;;9.00;8.10;;;13.70;60.60;;;;;;1491126;39;20043;-55
2021/05/19 03:58:48;;;;;;;10.25;9.25;;;13.70;60.70;;;;;;1490804;39;20036;-60
2021/05/19 04:00:17;;;;;;;9.43;8.63;;;13.80;60.90;;;;;;1490706;39;20028;-57
2021/05/19 04:01:38;;;;;;;9.60;8.73;;;13.70;60.80;;;;;;1489755;39;20032;-58
2021/05/19 04:02:58;;;;;;;10.50;9.50;;;13.70;60.70;;;;;;1489840;39;20026;-58
2021/05/19 04:04:19;;;;;;;10.55;9.55;;;13.70;61.00;;;;;;1491847;39;20400;-57
2021/05/19 04:05:41;;;;;;;10.07;9.15;;;13.70;60.60;;;;;;1490761;39;20296;-58
2021/05/19 04:07:01;;;;;;;10.38;8.93;;;13.70;60.60;;;;;;1491180;39;20027;-58
2021/05/19 04:08:36;;;;;;;10.68;9.57;;;13.70;60.60;;;;;;1489913;39;20117;-58
2021/05/19 04:09:56;;;;;;;10.25;9.25;;;13.70;61.00;;;;;;1490683;39;20285;-58
2021/05/19 04:11:18;;;;;;;11.20;9.77;;;13.60;60.70;;;;;;1491350;39;20020;-58
2021/05/19 04:12:39;;;;;;;11.35;10.15;;;13.60;60.70;;;;;;1489770;39;20036;-58
2021/05/19 04:14:00;;;;;;;11.70;10.50;;;13.60;60.70;;;;;;1486789;40;20472;-58
2021/05/19 04:15:23;;;;;;;11.27;10.18;;;13.60;60.70;;;;;;1489965;39;20304;-58
2021/05/19 04:16:44;;;;;;;10.60;9.60;;;13.60;60.70;;;;;;1492334;39;20409;-57
2021/05/19 04:18:05;;;;;;;11.32;10.20;;;13.60;60.70;;;;;;1491402;39;20062;-57
2021/05/19 04:19:27;;;;;;;10.77;9.60;;;13.50;60.80;;;;;;1490316;39;20039;-56
2021/05/19 04:20:49;;;;;;;11.20;10.07;;;13.60;61.00;;;;;;1490405;39;20035;-58
2021/05/19 04:22:10;;;;;;;10.88;9.77;;;13.50;61.00;;;;;;1490946;39;20015;-57
2021/05/19 04:23:31;;;;;;;10.05;8.98;;;13.60;61.20;;;;;;1490946;39;20284;-58
2021/05/19 04:24:51;;;;;;;11.27;10.18;;;13.50;61.10;;;;;;1491213;39;20031;-57
2021/05/19 04:26:12;;;;;;;10.52;9.52;;;13.50;61.20;;;;;;1490719;39;20032;-58
2021/05/19 04:27:33;;;;;;;10.95;9.82;;;13.50;61.20;;;;;;1489812;39;20072;-58
2021/05/19 04:28:54;;;;;;;10.73;9.18;;;13.50;61.20;;;;;;1492050;39;20346;-57
2021/05/19 04:30:16;;;;;;;12.18;9.40;;;13.50;61.30;;;;;;1491258;39;20031;-58
2021/05/19 04:31:36;;;;;;;10.00;8.90;;;13.50;61.40;;;;;;1491492;39;20031;-58
2021/05/19 04:32:57;;;;;;;9.70;8.70;;;13.50;61.40;;;;;;1489640;39;20311;-58
2021/05/19 04:34:18;;;;;;;11.40;9.45;;;13.50;61.50;;;;;;1492101;39;20023;-58
2021/05/19 04:35:39;;;;;;;11.70;9.88;;;13.50;61.50;;;;;;1491268;39;20028;-58
2021/05/19 04:37:00;;;;;;;10.50;9.07;;;13.50;61.50;;;;;;1490046;39;20441;-57
2021/05/19 04:38:21;;;;;;;10.90;9.80;;;13.50;62.10;;;;;;1490017;39;20046;-58
2021/05/19 04:39:42;;;;;;;10.65;9.55;;;13.50;61.40;;;;;;1489887;39;20065;-58
2021/05/19 04:41:03;;;;;;;11.07;9.55;;;13.50;61.40;;;;;;1491347;39;20136;-58
2021/05/19 04:42:24;;;;;;;13.38;10.60;;;13.50;61.40;;;;;;1491664;39;20346;-58
2021/05/19 04:43:46;;;;;;;12.32;10.23;;;13.50;61.40;;;;;;1490867;39;20478;-58
2021/05/19 04:45:07;;;;;;;11.27;9.07;;;13.50;61.50;;;;;;1491060;39;20113;-58
2021/05/19 04:46:28;;;;;;;11.63;9.32;;;13.50;61.50;;;;;;1492249;39;20039;-58
2021/05/19 04:47:49;;;;;;;12.55;9.95;;;13.40;61.50;;;;;;1486543;40;20036;-58
2021/05/19 04:49:10;;;;;;;11.80;9.80;;;13.40;61.60;;;;;;1489788;39;20051;-58
2021/05/19 04:50:32;;;;;;;11.13;10.02;;;13.40;61.50;;;;;;1490041;39;20039;-58
2021/05/19 04:51:53;;;;;;;12.88;10.02;;;13.40;62.30;;;;;;1491807;39;20035;-58
2021/05/19 04:53:14;;;;;;;11.35;8.77;;;13.40;61.60;;;;;;1490839;39;20035;-58
2021/05/19 04:54:35;;;;;;;10.10;8.98;;;13.40;61.60;;;;;;1490745;39;20055;-58
2021/05/19 04:55:56;;;;;;;12.70;9.80;;;13.40;61.70;;;;;;1490237;39;20570;-57
2021/05/19 04:57:17;;;;;;;14.20;9.98;;;13.40;61.80;;;;;;1490622;39;20064;-58
2021/05/19 04:58:38;;;;;;;12.18;9.13;;;13.40;61.80;;;;;;1489993;39;20040;-58
2021/05/19 04:59:59;;;;;;;11.27;9.15;;;13.40;61.90;;;;;;1491439;39;20264;-58
2021/05/19 05:01:20;;;;;;;13.25;8.77;;;13.40;61.90;;;;;;1490629;39;20366;-58
2021/05/19 05:02:41;;;;;;;12.63;8.82;;;13.40;61.90;;;;;;1490168;39;20287;-58
2021/05/19 05:04:02;;;;;;;10.93;8.70;;;13.30;61.90;;;;;;1490787;39;20027;-59
2021/05/19 05:05:23;;;;;;;12.68;9.88;;;13.40;62.10;;;;;;1491130;39;20028;-58
2021/05/19 05:06:44;;;;;;;10.52;8.98;;;13.30;62.10;;;;;;1490573;39;20258;-58
2021/05/19 05:08:05;;;;;;;12.38;9.27;;;13.30;62.80;;;;;;1489353;39;20030;-57
2021/05/19 05:09:26;;;;;;;12.43;9.60;;;13.40;62.30;;;;;;1491048;39;20039;-58
2021/05/19 05:10:47;;;;;;;11.82;9.43;;;13.30;62.30;;;;;;1490268;39;20341;-58
2021/05/19 05:12:08;;;;;;;14.73;9.13;;;13.40;62.30;;;;;;1491922;39;20016;-58
2021/05/19 05:13:29;;;;;;;11.45;9.10;;;13.40;62.40;;;;;;1486220;39;20050;-57
2021/05/19 05:14:50;;;;;;;11.52;9.60;;;13.40;62.40;;;;;;1489698;39;20040;-58
2021/05/19 05:16:12;;;;;;;11.65;8.98;;;13.40;62.50;;;;;;1491125;39;20027;-58
2021/05/19 05:17:33;;;;;;;11.20;9.07;;;13.40;62.50;;;;;;1489705;39;20086;-58
2021/05/19 05:18:54;;;;;;;11.77;8.52;;;13.40;62.60;;;;;;1489885;39;20124;-58
2021/05/19 05:20:15;;;;;;;11.85;9.65;;;13.40;62.60;;;;;;1488646;39;20039;-58
2021/05/19 05:21:36;;;;;;;12.30;8.75;;;13.40;62.70;;;;;;1488249;39;20367;-58
2021/05/19 05:22:57;;;;;;;12.88;9.10;;;13.40;62.70;;;;;;1490782;39;20104;-58
2021/05/19 05:24:17;;;;;;;10.75;8.85;;;13.40;62.70;;;;;;1491139;39;20043;-58
2021/05/19 05:25:38;;;;;;;11.48;9.15;;;13.40;62.70;;;;;;1489326;39;20036;-58
2021/05/19 05:26:59;;;;;;;10.07;8.32;;;13.40;62.80;;;;;;1490025;39;20020;-58
2021/05/19 05:28:20;;;;;;;14.52;9.35;;;13.50;62.90;;;;;;1490167;39;20037;-58
2021/05/19 05:29:41;;;;;;;13.95;9.65;;;13.40;62.80;;;;;;1490752;39;20024;-57
2021/05/19 05:31:02;;;;;;;11.77;9.27;;;13.50;63.10;;;;;;1490087;39;20071;-59
2021/05/19 05:32:23;;;;;;;13.88;9.50;;;13.50;62.90;;;;;;1487545;39;20032;-58
2021/05/19 05:33:46;;;;;;;12.93;9.32;;;13.40;62.80;;;;;;1490109;39;20047;-58
2021/05/19 05:35:08;;;;;;;13.63;8.95;;;13.40;62.70;;;;;;1488442;39;20051;-58
2021/05/19 05:36:29;;;;;;;13.85;9.55;;;13.50;62.80;;;;;;1489453;39;20039;-58
2021/05/19 05:37:50;;;;;;;12.25;9.50;;;13.40;62.80;;;;;;1489360;39;20454;-58
2021/05/19 05:39:11;;;;;;;11.27;8.52;;;13.40;62.80;;;;;;1491091;39;20032;-58
2021/05/19 05:40:32;;;;;;;11.18;8.70;;;13.40;62.70;;;;;;1490740;39;20048;-57
2021/05/19 05:41:53;;;;;;;11.00;8.45;;;13.50;62.80;;;;;;1490578;39;20060;-58
2021/05/19 05:43:14;;;;;;;11.23;8.13;;;13.40;62.80;;;;;;1489412;39;20031;-56
2021/05/19 05:44:35;;;;;;;11.52;8.38;;;13.50;62.90;;;;;;1489977;39;20039;-58
2021/05/19 05:45:56;;;;;;;11.63;8.70;;;13.40;62.80;;;;;;1489157;39;20039;-58
2021/05/19 05:47:17;;;;;;;14.43;8.80;;;13.50;63.00;;;;;;1490123;39;20020;-58
2021/05/19 05:48:40;;;;;;;10.90;8.48;;;13.50;63.10;;;;;;1489540;39;20044;-59
2021/05/19 05:50:03;;;;;;;14.00;8.88;;;13.50;63.20;;;;;;1490888;39;20047;-58
2021/05/19 05:51:24;;;;;;;12.75;8.98;;;13.50;63.20;;;;;;1489267;39;20028;-58
2021/05/19 05:52:45;;;;;;;14.07;8.88;;;13.50;63.20;;;;;;1488645;39;20121;-58
2021/05/19 05:54:06;;;;;;;20.05;9.35;;;13.50;63.20;;;;;;1489072;39;20024;-58
2021/05/19 05:55:27;;;;;;;13.23;8.95;;;13.50;63.30;;;;;;1488906;39;20067;-58
2021/05/19 05:56:48;;;;;;;15.80;8.82;;;13.50;63.30;;;;;;1490396;39;20035;-58
2021/05/19 05:58:09;;;;;;;15.77;8.80;;;13.50;63.60;;;;;;1489936;39;20268;-58
2021/05/19 05:59:30;;;;;;;13.95;7.88;;;13.50;63.20;;;;;;1490377;39;20027;-57
2021/05/19 06:00:51;;;;;;;11.18;8.05;;;13.50;63.30;;;;;;1489130;39;20043;-59
2021/05/19 06:02:12;;;;;;;13.85;8.20;;;13.50;63.30;;;;;;1488356;39;20036;-58
2021/05/19 06:03:33;;;;;;;14.13;8.13;;;13.50;63.30;;;;;;1489537;39;20054;-58
2021/05/19 06:04:54;;;;;;;13.45;8.20;;;13.60;63.30;;;;;;1490299;39;20040;-58
2021/05/19 06:06:15;;;;;;;14.82;7.90;;;13.60;63.50;;;;;;1490748;39;20046;-58
2021/05/19 06:07:36;;;;;;;17.90;8.30;;;13.60;63.60;;;;;;1488840;39;20028;-58
2021/05/19 06:08:57;;;;;;;12.90;6.88;;;13.60;63.60;;;;;;1489179;39;20084;-58
2021/05/19 06:10:18;;;;;;;12.60;7.30;;;13.60;63.50;;;;;;1490394;39;20036;-58
2021/05/19 06:11:39;;;;;;;11.85;7.65;;;13.60;63.60;;;;;;1489311;39;20039;-58
2021/05/19 06:13:00;;;;;;;15.40;8.63;;;13.70;63.80;;;;;;1489115;39;20043;-57
2021/05/19 06:14:21;;;;;;;10.02;6.95;;;13.60;63.80;;;;;;1486252;39;20154;-58
2021/05/19 06:15:42;;;;;;;11.15;6.75;;;13.70;63.80;;;;;;1489423;39;20032;-57
2021/05/19 06:17:03;;;;;;;10.15;6.63;;;13.70;63.90;;;;;;1490569;39;20028;-58
2021/05/19 06:18:25;;;;;;;9.30;6.63;;;13.80;64.00;;;;;;1489960;39;20046;-57
2021/05/19 06:19:46;;;;;;;9.27;5.90;;;13.80;64.10;;;;;;1488698;39;20071;-58
2021/05/19 06:21:06;;;;;;;8.68;6.15;;;13.80;64.00;;;;;;1488955;39;20043;-58
2021/05/19 06:22:27;;;;;;;10.60;6.78;;;13.90;64.00;;;;;;1488996;39;20044;-58
2021/05/19 06:23:48;;;;;;;12.50;6.68;;;13.90;63.80;;;;;;1488968;39;20293;-56
2021/05/19 06:25:10;;;;;;;7.90;5.53;;;13.90;63.70;;;;;;1489741;39;20063;-58
2021/05/19 06:26:31;;;;;;;11.55;6.00;;;13.90;63.70;;;;;;1488046;39;20155;-58
2021/05/19 06:27:52;;;;;;;9.27;5.78;;;14.00;63.70;;;;;;1488201;39;20035;-56
2021/05/19 06:29:14;;;;;;;12.40;6.07;;;14.00;63.80;;;;;;1488613;39;20016;-59
2021/05/19 06:30:35;;;;;;;9.90;6.07;;;14.00;63.80;;;;;;1490525;39;20132;-58
2021/05/19 06:31:56;;;;;;;8.55;5.03;;;14.10;63.60;;;;;;1490131;39;20052;-58
2021/05/19 06:33:17;;;;;;;8.43;5.63;;;14.10;63.60;;;;;;1491497;39;20120;-58
2021/05/19 06:34:38;;;;;;;11.25;5.35;;;14.10;63.40;;;;;;1489210;39;20049;-58
2021/05/19 06:35:59;;;;;;;10.98;5.43;;;14.20;63.40;;;;;;1488451;39;20036;-59
2021/05/19 06:37:20;;;;;;;9.95;5.32;;;14.20;63.30;;;;;;1488927;39;20047;-58
2021/05/19 06:38:41;;;;;;;11.85;6.00;;;14.20;63.10;;;;;;1490877;39;20164;-59
2021/05/19 06:40:04;;;;;;;8.88;5.32;;;14.20;63.00;;;;;;1489999;39;20112;-58
2021/05/19 06:41:25;;;;;;;8.38;5.10;;;14.30;63.10;;;;;;1490221;39;20024;-58
2021/05/19 06:42:46;;;;;;;11.07;5.57;;;14.30;63.10;;;;;;1489950;39;20052;-59
2021/05/19 06:44:07;;;;;;;10.63;6.00;;;14.30;63.20;;;;;;1489387;39;20027;-59
2021/05/19 06:45:28;;;;;;;9.77;5.20;;;14.40;63.20;;;;;;1488766;39;20545;-59
2021/05/19 06:46:50;;;;;;;9.85;5.63;;;14.40;63.10;;;;;;1488720;39;20036;-59
2021/05/19 06:48:10;;;;;;;10.30;5.15;;;14.40;63.10;;;;;;1490574;39;20047;-58
2021/05/19 06:49:31;;;;;;;9.73;4.90;;;14.40;62.90;;;;;;1489424;39;20093;-57
2021/05/19 06:50:52;;;;;;;14.73;5.60;;;14.50;63.00;;;;;;1489261;39;20075;-59
2021/05/19 06:52:15;;;;;;;8.68;4.30;;;14.50;62.80;;;;;;1491099;39;20035;-59
2021/05/19 06:53:36;;;;;;;8.63;4.70;;;14.50;62.70;;;;;;1490423;39;20051;-59
2021/05/19 06:54:56;;;;;;;9.07;4.60;;;14.50;62.40;;;;;;1488409;39;20344;-58
2021/05/19 06:56:18;;;;;;;6.03;4.22;;;14.50;62.20;;;;;;1490550;39;20482;-58
2021/05/19 06:57:39;;;;;;;7.68;4.47;;;14.60;62.30;;;;;;1490348;39;20058;-59
2021/05/19 06:59:01;;;;;;;10.60;4.68;;;14.60;62.40;;;;;;1489418;39;20020;-59
2021/05/19 07:00:23;;;;;;;8.05;4.63;;;14.60;62.40;;;;;;1487065;39;20113;-58
2021/05/19 07:01:45;;;;;;;7.55;4.32;;;14.60;62.40;;;;;;1489119;39;20047;-58
2021/05/19 07:03:06;;;;;;;8.75;4.30;;;14.70;62.30;;;;;;1490331;39;20057;-58